Time;durP1;ratioP1;P1;durP2;ratioP2;P2;SDS_P1;SDS_P2;PMS_P1;PMS_P2;Temp;Humidity;BMP_temperature;BMP_pressure;BME280_temperature;BME280_humidity;BME280_pressure;Samples;Min_cycle;Max_cycle;Signal;HPM_P1;HPM_P2
2022/04/25 00:02:25;;;;;;;1.60;0.82;;;;;;;8.52;75.91;95218.54;1648066;87;21025;-80
2022/04/25 00:04:51;;;;;;;1.52;0.75;;;;;;;8.52;75.87;95217.74;1629499;88;20953;-80
2022/04/25 00:07:17;;;;;;;0.90;0.80;;;;;;;8.52;75.99;95217.74;1654051;87;21053;-80
2022/04/25 00:09:44;;;;;;;0.98;0.70;;;;;;;8.49;76.06;95216.84;1643782;87;21004;-80
2022/04/25 00:12:10;;;;;;;1.05;0.80;;;;;;;8.45;76.05;95221.59;1645976;87;21079;-80
2022/04/25 00:14:36;;;;;;;2.50;1.00;;;;;;;8.39;76.40;95223.19;1646596;87;21000;-80
2022/04/25 00:17:03;;;;;;;1.05;0.70;;;;;;;8.38;76.50;95223.39;1646554;87;21086;-80
2022/04/25 00:19:29;;;;;;;1.55;1.00;;;;;;;8.40;76.65;95226.58;1646625;87;21000;-80
2022/04/25 00:21:54;;;;;;;3.83;1.20;;;;;;;8.45;76.83;95226.77;1645884;87;21007;-80
2022/04/25 00:24:20;;;;;;;1.00;0.70;;;;;;;8.54;77.33;95224.81;1646168;87;21079;-80
2022/04/25 00:26:46;;;;;;;1.37;1.07;;;;;;;8.55;77.32;95218.64;1646546;87;21003;-80
2022/04/25 00:29:12;;;;;;;1.95;0.93;;;;;;;8.56;77.45;95218.94;1646466;87;21124;-80
2022/04/25 00:31:40;;;;;;;2.17;1.00;;;;;;;8.56;77.69;95222.81;1654841;86;21389;-80
2022/04/25 00:34:05;;;;;;;1.30;0.93;;;;;;;8.58;77.87;95222.13;1663700;86;21016;-80
2022/04/25 00:36:31;;;;;;;0.75;0.60;;;;;;;8.62;78.12;95218.14;1646449;87;21011;-80
2022/04/25 00:38:57;;;;;;;1.80;0.80;;;;;;;8.70;77.97;95220.55;1646282;87;21459;-80
2022/04/25 00:41:22;;;;;;;2.12;0.80;;;;;;;8.80;77.46;95218.88;1646529;87;21035;-80
2022/04/25 00:43:48;;;;;;;2.77;0.80;;;;;;;8.90;77.16;95221.84;1646354;87;21055;-79
2022/04/25 00:46:22;;;;;;;1.72;0.85;;;;;;;8.98;76.98;95214.69;1646261;87;20988;-80
2022/04/25 00:48:48;;;;;;;3.12;0.82;;;;;;;9.06;77.00;95212.88;1646638;87;21434;-80
2022/04/25 00:51:15;;;;;;;0.90;0.70;;;;;;;9.12;76.90;95214.69;1646214;87;21019;-80
2022/04/25 00:53:40;;;;;;;0.95;0.70;;;;;;;9.14;76.84;95217.88;1646132;87;21166;-80
2022/04/25 00:56:06;;;;;;;0.93;0.82;;;;;;;9.16;76.83;95211.48;1646362;87;21362;-80
2022/04/25 00:58:32;;;;;;;0.80;0.60;;;;;;;9.23;76.63;95212.27;1646456;87;21031;-80
2022/04/25 01:00:58;;;;;;;1.40;0.90;;;;;;;9.28;76.46;95198.72;1651906;87;20966;-80
2022/04/25 01:03:25;;;;;;;2.02;0.90;;;;;;;9.32;76.15;95201.99;1654600;87;21513;-80
2022/04/25 01:05:52;;;;;;;1.37;0.80;;;;;;;9.33;75.97;95196.31;1632396;87;20994;-80
2022/04/25 01:08:19;;;;;;;0.95;0.60;;;;;;;9.34;76.03;95203.08;1654900;87;21404;-79
2022/04/25 01:10:45;;;;;;;1.75;1.00;;;;;;;9.32;76.20;95202.49;1650998;87;21061;-79
2022/04/25 01:13:14;;;;;;;1.10;0.70;;;;;;;9.29;76.07;95194.63;1626554;87;21113;-80
2022/04/25 01:15:40;;;;;;;0.82;0.57;;;;;;;9.23;75.95;95198.00;1626574;88;21102;-80
2022/04/25 01:18:06;;;;;;;1.20;1.07;;;;;;;9.17;75.87;95203.21;1628336;87;21089;-80
2022/04/25 01:20:32;;;;;;;0.70;0.70;;;;;;;9.12;75.70;95203.02;1654629;87;21420;-80
2022/04/25 01:28:30;;;;;;;4.55;0.60;;;;;;;9.00;75.53;95206.22;1629544;88;21057;-80
2022/04/25 01:30:56;;;;;;;1.40;0.75;;;;;;;8.90;75.43;95209.69;1653131;87;21433;-80
2022/04/25 01:33:22;;;;;;;2.05;0.70;;;;;;;8.80;75.41;95205.42;1626618;88;21064;-80
2022/04/25 01:35:47;;;;;;;1.22;0.90;;;;;;;8.70;75.49;95202.42;1624284;88;20994;-80
2022/04/25 01:38:13;;;;;;;0.80;0.70;;;;;;;8.61;75.69;95210.87;1626788;88;20955;-80
2022/04/25 01:40:39;;;;;;;1.35;0.75;;;;;;;8.57;75.74;95208.88;1626588;88;22344;-80
2022/04/25 01:43:04;;;;;;;1.50;0.93;;;;;;;8.56;75.88;95218.44;1626535;87;21006;-80
2022/04/25 01:45:30;;;;;;;1.65;0.98;;;;;;;8.59;76.16;95215.95;1626729;87;21002;-80
2022/04/25 01:47:56;;;;;;;1.02;0.80;;;;;;;8.59;76.28;95218.53;1626665;88;21002;-80
2022/04/25 01:50:22;;;;;;;1.95;0.90;;;;;;;8.65;76.60;95213.88;1626494;87;21360;-80
2022/04/25 01:52:47;;;;;;;1.80;0.95;;;;;;;8.62;76.67;95212.48;1636600;87;21008;-80
2022/04/25 01:55:13;;;;;;;1.12;1.00;;;;;;;8.60;76.81;95214.95;1643694;87;21023;-80
2022/04/25 01:57:39;;;;;;;5.50;1.02;;;;;;;8.58;76.90;95209.97;1643625;87;21366;-80
2022/04/25 02:00:06;;;;;;;1.00;0.60;;;;;;;8.60;77.12;95213.66;1643648;85;20974;-80
2022/04/25 02:02:32;;;;;;;1.17;0.90;;;;;;;8.63;77.10;95219.27;1651734;87;20994;-80
2022/04/25 02:04:59;;;;;;;1.75;1.00;;;;;;;8.67;77.29;95219.16;1633712;87;21050;-80
2022/04/25 02:07:25;;;;;;;1.75;0.72;;;;;;;8.70;77.39;95221.34;1623531;87;21041;-80
2022/04/25 02:09:51;;;;;;;1.55;1.25;;;;;;;8.69;77.67;95215.07;1632931;87;21011;-80
2022/04/25 02:12:16;;;;;;;1.52;0.98;;;;;;;8.66;77.61;95221.95;1627056;87;21427;-80
2022/04/25 02:14:43;;;;;;;1.37;0.82;;;;;;;8.67;77.59;95220.95;1621277;88;21064;-80
2022/04/25 02:17:09;;;;;;;1.37;0.80;;;;;;;8.68;77.53;95219.95;1622547;87;21107;-80
2022/04/25 02:19:38;;;;;;;1.10;0.80;;;;;;;8.69;77.62;95215.07;1620005;88;21413;-80
2022/04/25 02:22:03;;;;;;;1.52;0.88;;;;;;;8.70;77.40;95214.08;1620000;89;21031;-80
2022/04/25 02:24:29;;;;;;;1.45;1.00;;;;;;;8.70;77.42;95221.34;1620005;88;21362;-80
2022/04/25 02:26:55;;;;;;;1.40;1.05;;;;;;;8.70;77.18;95225.73;1619854;87;20987;-80
2022/04/25 02:29:22;;;;;;;1.20;0.90;;;;;;;8.74;77.46;95228.22;1619957;89;21015;-80
2022/04/25 02:31:48;;;;;;;1.77;0.90;;;;;;;8.75;77.48;95230.31;1620483;87;21390;-80
2022/04/25 02:34:13;;;;;;;1.98;0.88;;;;;;;8.75;77.23;95232.89;1619865;88;20975;-80
2022/04/25 02:36:39;;;;;;;1.20;0.82;;;;;;;8.79;77.74;95231.03;1619634;87;21006;-80
2022/04/25 02:39:05;;;;;;;1.80;1.00;;;;;;;8.81;77.79;95229.03;1619905;88;20995;-80
2022/04/25 02:41:31;;;;;;;1.12;1.00;;;;;;;8.86;77.81;95230.52;1620069;88;21378;-80
2022/04/25 02:43:56;;;;;;;1.52;0.93;;;;;;;8.90;77.81;95233.00;1620070;88;20999;-80
2022/04/25 02:46:22;;;;;;;2.08;1.10;;;;;;;8.91;77.69;95226.83;1619914;87;21014;-80
2022/04/25 02:48:48;;;;;;;1.47;1.05;;;;;;;8.89;77.59;95226.23;1620068;87;21083;-80
2022/04/25 02:51:15;;;;;;;2.77;1.30;;;;;;;8.88;77.71;95229.03;1619919;88;21465;-80
2022/04/25 02:53:40;;;;;;;2.17;0.90;;;;;;;8.86;77.77;95231.81;1619937;89;21083;-80
2022/04/25 02:56:06;;;;;;;1.90;0.78;;;;;;;8.87;77.68;95232.11;1620013;89;21367;-80
2022/04/25 02:58:34;;;;;;;1.25;0.80;;;;;;;8.90;77.77;95239.98;1619973;88;21030;-80
2022/04/25 03:01:00;;;;;;;1.65;1.05;;;;;;;8.93;77.93;95237.78;1638814;87;21030;-80
2022/04/25 03:03:26;;;;;;;1.60;1.20;;;;;;;8.98;78.00;95234.12;1647731;87;21035;-80
2022/04/25 03:05:54;;;;;;;1.80;1.00;;;;;;;8.99;78.00;95228.44;1647503;87;21119;-80
2022/04/25 03:08:22;;;;;;;1.45;0.98;;;;;;;8.97;78.02;95229.94;1626767;87;21094;-79
2022/04/25 03:10:51;;;;;;;1.60;1.20;;;;;;;8.95;77.88;95233.73;1619992;89;21166;-80
2022/04/25 03:13:17;;;;;;;1.62;1.20;;;;;;;8.93;78.04;95237.78;1617160;89;21130;-80
2022/04/25 03:15:43;;;;;;;1.30;1.00;;;;;;;8.93;77.87;95237.78;1617281;87;21035;-80
2022/04/25 03:18:10;;;;;;;1.37;1.15;;;;;;;8.99;77.83;95238.80;1617151;89;21082;-80
2022/04/25 03:20:38;;;;;;;1.40;1.10;;;;;;;8.98;77.68;95235.91;1617139;87;21082;-80
2022/04/25 03:23:07;;;;;;;2.55;1.20;;;;;;;8.97;77.73;95233.83;1617429;89;21425;-80
2022/04/25 03:25:33;;;;;;;1.80;0.90;;;;;;;8.99;78.21;95233.12;1617233;87;20995;-80
2022/04/25 03:27:59;;;;;;;2.85;1.20;;;;;;;8.98;78.56;95236.71;1617305;89;21394;-80
2022/04/25 03:30:25;;;;;;;2.00;1.02;;;;;;;8.94;78.61;95241.17;1617089;89;21063;-80
2022/04/25 03:32:51;;;;;;;2.27;1.00;;;;;;;8.91;78.71;95242.38;1640626;87;21053;-80
2022/04/25 03:35:18;;;;;;;1.95;1.00;;;;;;;8.90;78.74;95243.87;1618753;87;21339;-80
2022/04/25 03:37:45;;;;;;;2.35;1.22;;;;;;;8.90;78.57;95243.87;1618587;88;21016;-80
2022/04/25 03:40:12;;;;;;;1.75;1.12;;;;;;;8.92;78.44;95239.28;1618654;88;21063;-80
2022/04/25 03:42:38;;;;;;;2.40;1.27;;;;;;;8.91;78.40;95240.28;1618597;89;21359;-80
2022/04/25 03:45:05;;;;;;;2.83;1.25;;;;;;;8.94;78.50;95239.88;1618613;89;21016;-80
2022/04/25 03:47:34;;;;;;;2.05;1.15;;;;;;;8.98;78.55;95243.19;1620532;87;21502;-80
2022/04/25 03:49:59;;;;;;;1.70;1.02;;;;;;;9.01;78.79;95246.67;1617200;87;21043;-80
2022/04/25 03:52:25;;;;;;;2.33;1.10;;;;;;;9.03;78.41;95252.45;1617262;89;21086;-80
2022/04/25 03:57:35;;;;;;;1.87;1.60;;;;;;;9.18;78.42;95256.63;1617308;89;21410;-80
2022/04/25 04:00:01;;;;;;;1.70;0.95;;;;;;;9.23;78.67;95256.33;1617076;89;20987;-80
2022/04/25 04:02:26;;;;;;;1.37;1.00;;;;;;;9.23;78.80;95257.62;1632061;87;20975;-80
2022/04/25 04:04:52;;;;;;;2.02;1.10;;;;;;;9.26;79.01;95259.01;1625032;87;20998;-80
2022/04/25 04:07:18;;;;;;;1.60;0.98;;;;;;;9.26;79.10;95254.63;1618302;89;21437;-80
2022/04/25 04:09:47;;;;;;;2.65;1.10;;;;;;;9.31;79.09;95256.63;1617808;87;20983;-80
2022/04/25 04:12:15;;;;;;;2.15;1.12;;;;;;;9.35;79.27;95259.11;1617418;87;21073;-80
2022/04/25 04:14:41;;;;;;;2.87;1.22;;;;;;;9.39;79.19;95262.89;1618782;87;21003;-80
2022/04/25 04:17:07;;;;;;;2.35;1.45;;;;;;;9.46;79.24;95270.18;1618195;87;21026;-80
2022/04/25 04:19:35;;;;;;;1.22;1.12;;;;;;;9.53;79.47;95271.45;1618438;87;21079;-80
2022/04/25 04:22:05;;;;;;;3.15;1.22;;;;;;;9.53;79.42;95273.55;1617978;87;21015;-80
2022/04/25 04:24:32;;;;;;;1.87;1.10;;;;;;;9.52;79.52;95270.66;1619080;87;21039;-80
2022/04/25 04:27:01;;;;;;;2.58;2.37;;;;;;;9.53;79.40;95272.25;1618883;88;21023;-80
2022/04/25 04:29:28;;;;;;;6.97;6.28;;;;;;;9.56;79.60;95275.73;1618672;87;21006;-80
2022/04/25 04:31:54;;;;;;;4.53;4.12;;;;;;;9.61;79.62;95282.93;1631122;87;21402;-80
2022/04/25 04:34:19;;;;;;;3.30;2.52;;;;;;;9.69;79.68;95284.00;1644920;87;21013;-80
2022/04/25 04:36:45;;;;;;;2.00;1.42;;;;;;;9.72;79.80;95283.59;1628610;87;21017;-80
2022/04/25 04:39:11;;;;;;;3.00;1.15;;;;;;;9.74;79.96;95285.97;1618880;89;21026;-80
2022/04/25 04:41:37;;;;;;;2.45;1.02;;;;;;;9.76;80.33;95286.56;1618805;89;21364;-80
2022/04/25 04:44:03;;;;;;;1.67;0.98;;;;;;;9.78;80.04;95295.77;1618749;87;20987;-80
2022/04/25 04:46:29;;;;;;;2.75;1.67;;;;;;;9.83;80.24;95292.55;1630925;87;21039;-80
2022/04/25 04:48:55;;;;;;;3.33;2.20;;;;;;;9.91;80.35;95293.62;1639555;87;20986;-80
2022/04/25 04:51:21;;;;;;;3.10;2.80;;;;;;;9.95;80.00;95294.83;1644948;87;21374;-80
2022/04/25 04:53:47;;;;;;;1.92;1.60;;;;;;;10.03;79.99;95298.98;1645030;87;21025;-80
2022/04/25 04:56:13;;;;;;;1.70;1.20;;;;;;;10.06;80.02;95292.88;1621590;87;21391;-80
2022/04/25 04:58:38;;;;;;;1.80;0.88;;;;;;;10.09;79.92;95294.29;1618692;87;20974;-80
2022/04/25 05:01:04;;;;;;;1.22;1.10;;;;;;;10.15;79.80;95286.47;1625830;87;21331;-80
2022/04/25 05:03:31;;;;;;;1.62;1.10;;;;;;;10.26;79.52;95295.45;1620675;87;20983;-80
2022/04/25 05:05:57;;;;;;;1.80;1.25;;;;;;;10.33;80.00;95290.23;1618825;87;20999;-80
2022/04/25 05:08:22;;;;;;;2.55;1.15;;;;;;;10.40;80.41;95300.86;1619686;87;20984;-80
2022/04/25 05:10:48;;;;;;;4.40;2.40;;;;;;;10.46;80.61;95296.16;1626615;87;21007;-80
2022/04/25 05:13:17;;;;;;;3.00;1.90;;;;;;;10.48;80.68;95292.85;1652124;87;21473;-80
2022/04/25 05:15:43;;;;;;;5.03;2.40;;;;;;;10.51;80.71;95293.73;1637274;87;21042;-80
2022/04/25 05:18:10;;;;;;;7.00;2.55;;;;;;;10.59;80.61;95299.20;1642166;87;21121;-80
2022/04/25 05:20:35;;;;;;;3.08;2.22;;;;;;;10.65;79.97;95298.86;1638462;87;21050;-79
2022/04/25 05:23:03;;;;;;;3.62;3.27;;;;;;;10.68;80.07;95294.04;1639704;87;21413;-80
2022/04/25 05:25:29;;;;;;;4.87;4.37;;;;;;;10.71;80.22;95301.91;1638977;87;21002;-79
2022/04/25 05:27:55;;;;;;;4.53;3.17;;;;;;;10.71;80.22;95302.72;1642054;87;20978;-80
2022/04/25 05:30:24;;;;;;;2.98;1.90;;;;;;;10.72;80.50;95299.61;1627180;87;21040;-79
2022/04/25 05:32:52;;;;;;;3.30;1.75;;;;;;;10.78;80.72;95302.69;1639074;87;21082;-80
2022/04/25 05:35:19;;;;;;;2.72;1.90;;;;;;;10.85;80.86;95309.14;1654542;87;21377;-79
2022/04/25 05:37:45;;;;;;;3.65;2.62;;;;;;;10.86;80.74;95310.73;1643283;87;20959;-80
2022/04/25 05:40:13;;;;;;;6.35;4.85;;;;;;;10.82;80.40;95312.95;1623733;87;21399;-80
2022/04/25 05:42:40;;;;;;;6.75;5.15;;;;;;;10.76;79.99;95312.00;1623262;87;20962;-80
2022/04/25 05:45:08;;;;;;;8.48;5.92;;;;;;;10.73;79.81;95311.09;1641314;87;21369;-79
2022/04/25 05:47:34;;;;;;;6.85;5.58;;;;;;;10.72;79.67;95313.40;1654656;87;21365;-79
2022/04/25 05:52:48;;;;;;;7.42;5.40;;;;;;;10.73;79.89;95318.09;1654462;87;21426;-80
2022/04/25 05:55:14;;;;;;;7.05;4.97;;;;;;;10.76;80.04;95313.80;1629501;88;20977;-79
2022/04/25 05:57:43;;;;;;;10.85;8.50;;;;;;;10.83;81.16;95318.45;1633632;87;20994;-80
2022/04/25 06:00:10;;;;;;;14.78;10.85;;;;;;;10.87;81.13;95318.81;1627771;85;20963;-79
2022/04/25 06:02:39;;;;;;;18.20;12.40;;;;;;;10.83;80.29;95316.64;1649682;87;20982;-80
2022/04/25 06:05:10;;;;;;;16.93;10.85;;;;;;;10.82;80.12;95316.34;1643307;86;21028;-80
2022/04/25 06:07:36;;;;;;;12.30;9.07;;;;;;;10.85;79.91;95316.94;1628410;88;21021;-80
2022/04/25 06:10:03;;;;;;;25.97;18.75;;;;;;;10.91;80.49;95326.01;1641522;87;21286;-80
2022/04/25 06:12:29;;;;;;;23.62;18.90;;;;;;;10.98;80.64;95317.66;1644493;87;21091;-80
2022/04/25 06:14:59;;;;;;;18.90;13.75;;;;;;;11.00;80.24;95314.34;1611641;88;21002;-80
2022/04/25 06:17:26;;;;;;;15.50;11.50;;;;;;;11.11;80.18;95316.78;1643292;87;21023;-80
2022/04/25 06:19:52;;;;;;;11.68;9.25;;;;;;;11.17;80.48;95319.83;1642127;87;21052;-79
2022/04/25 06:22:19;;;;;;;12.63;9.53;;;;;;;11.21;80.33;95317.59;1639182;87;21416;-79
2022/04/25 06:24:46;;;;;;;14.07;10.68;;;;;;;11.25;80.21;95316.19;1649070;87;20978;-79
2022/04/25 06:27:11;;;;;;;19.42;13.58;;;;;;;11.33;80.50;95313.31;1646498;87;20970;-79
2022/04/25 06:29:37;;;;;;;20.23;14.03;;;;;;;11.38;80.78;95315.55;1642588;87;21985;-79
2022/04/25 06:32:05;;;;;;;14.23;10.10;;;;;;;11.39;80.55;95314.58;1646157;86;20950;-82
2022/04/25 06:34:34;;;;;;;18.98;16.97;;;;;;;11.33;79.71;95315.41;1645900;87;20958;-83
2022/04/25 06:36:59;;;;;;;24.72;19.52;;;;;;;11.28;79.15;95319.16;1647518;87;21455;-84
2022/04/25 06:39:25;;;;;;;22.45;18.17;;;;;;;11.13;78.55;95316.86;1639071;87;21021;-84
2022/04/25 06:41:51;;;;;;;19.17;15.45;;;;;;;11.02;78.51;95311.02;1650482;87;21313;-84
2022/04/25 06:44:17;;;;;;;23.07;18.12;;;;;;;10.97;78.17;95317.87;1615726;87;20980;-82
2022/04/25 06:46:43;;;;;;;19.40;16.52;;;;;;;10.95;78.68;95312.09;1612523;88;21081;-82
2022/04/25 06:49:25;;;;;;;18.82;14.85;;;;;;;10.94;78.91;95315.70;1646888;87;21033;-82
2022/04/25 06:51:56;;;;;;;14.98;11.78;;;;;;;10.91;78.78;95309.62;1622526;87;21056;-82
2022/04/25 06:54:24;;;;;;;13.65;10.38;;;;;;;10.91;79.27;95315.61;1643900;87;21364;-82
2022/04/25 06:56:50;;;;;;;13.60;11.28;;;;;;;10.94;78.90;95315.19;1627897;87;21324;-83
2022/04/25 06:59:15;;;;;;;13.38;10.68;;;;;;;11.04;78.98;95318.11;1625512;87;21032;-82
2022/04/25 07:01:42;;;;;;;18.27;12.53;;;;;;;11.13;78.63;95325.16;1630076;87;21001;-82
2022/04/25 07:04:14;;;;;;;14.13;12.00;;;;;;;11.24;79.00;95327.59;1607851;87;21344;-82
2022/04/25 07:06:41;;;;;;;17.80;13.30;;;;;;;11.29;78.66;95322.55;1645320;87;21038;-82
2022/04/25 07:09:07;;;;;;;17.85;14.13;;;;;;;11.30;79.19;95318.94;1640784;87;21100;-81
2022/04/25 07:11:33;;;;;;;17.98;13.83;;;;;;;11.38;79.16;95323.86;1600801;89;21049;-82
2022/04/25 07:14:04;;;;;;;14.47;9.93;;;;;;;11.41;78.97;95329.97;1612915;88;21043;-82
2022/04/25 07:16:30;;;;;;;12.07;9.43;;;;;;;11.44;78.14;95328.23;1633109;87;21426;-82
2022/04/25 07:18:57;;;;;;;11.18;9.20;;;;;;;11.45;78.19;95332.43;1617805;87;21078;-82
2022/04/25 07:29:35;;;;;;;13.80;10.65;;;;;;;11.43;76.80;95335.75;1621845;86;21479;-81
2022/04/25 07:32:01;;;;;;;15.93;11.83;;;;;;;11.43;76.93;95334.45;1620971;87;21055;-82
2022/04/25 07:34:27;;;;;;;13.18;10.50;;;;;;;11.42;77.34;95343.27;1611715;87;21021;-81
2022/04/25 07:36:53;;;;;;;15.20;10.38;;;;;;;11.46;77.63;95346.23;1637617;87;21014;-82
2022/04/25 07:39:21;;;;;;;12.65;10.88;;;;;;;11.48;77.94;95343.70;1635156;87;21356;-81
2022/04/25 07:41:47;;;;;;;13.10;10.43;;;;;;;11.48;77.38;95349.41;1635440;87;21428;-81
2022/04/25 07:44:13;;;;;;;13.45;9.68;;;;;;;11.50;77.62;95355.99;1643376;87;21037;-82
2022/04/25 07:46:41;;;;;;;9.70;6.05;;;;;;;11.45;77.99;95354.54;1637926;86;20978;-81
2022/04/25 07:49:10;;;;;;;7.00;4.22;;;;;;;11.39;77.68;95352.29;1635720;87;21369;-82
2022/04/25 07:51:37;;;;;;;5.40;3.25;;;;;;;11.36;77.90;95355.80;1634332;87;20955;-82
2022/04/25 07:54:05;;;;;;;3.60;1.98;;;;;;;11.27;77.69;95351.37;1620621;87;21020;-82
2022/04/25 07:56:35;;;;;;;2.75;1.60;;;;;;;11.25;78.97;95356.49;1637925;87;21031;-82
2022/04/25 07:59:01;;;;;;;3.17;1.50;;;;;;;11.23;78.19;95361.91;1644520;87;21034;-81
2022/04/25 08:01:29;;;;;;;2.67;1.60;;;;;;;11.28;78.43;95361.27;1638105;87;21587;-81
2022/04/25 08:03:55;;;;;;;2.92;1.70;;;;;;;11.31;78.51;95364.74;1615897;88;21916;-82
2022/04/25 08:06:22;;;;;;;4.70;1.87;;;;;;;11.33;78.41;95362.22;1642185;87;21026;-81
2022/04/25 08:08:49;;;;;;;5.30;3.87;;;;;;;11.39;78.45;95366.59;1640756;87;20955;-81
2022/04/25 08:11:15;;;;;;;10.05;6.03;;;;;;;11.47;79.02;95364.23;1642051;87;20991;-81
2022/04/25 08:19:10;;;;;;;3.42;2.12;;;;;;;11.70;77.85;95364.42;1621505;87;21512;-82
2022/04/25 08:21:39;;;;;;;3.00;1.50;;;;;;;11.77;77.96;95366.20;1624010;87;21062;-81
2022/04/25 08:24:04;;;;;;;3.62;1.70;;;;;;;11.80;77.56;95371.80;1619776;87;21397;-82
2022/04/25 08:26:30;;;;;;;3.10;1.45;;;;;;;11.78;76.79;95380.30;1618054;87;21018;-82
2022/04/25 08:28:56;;;;;;;3.08;1.45;;;;;;;11.79;77.15;95372.80;1619170;87;21033;-82
2022/04/25 08:31:22;;;;;;;3.52;1.37;;;;;;;11.81;76.94;95381.20;1623162;87;21066;-84
2022/04/25 08:33:48;;;;;;;2.58;1.22;;;;;;;11.87;76.56;95380.33;1626314;87;21034;-84
2022/04/25 08:36:16;;;;;;;2.72;1.90;;;;;;;11.93;76.51;95377.39;1617246;87;20971;-84
2022/04/25 08:38:43;;;;;;;2.98;1.65;;;;;;;12.02;77.09;95383.39;1629408;87;21982;-84
2022/04/25 08:41:20;;;;;;;2.77;1.57;;;;;;;12.07;76.24;95385.88;1622119;87;21034;-84
2022/04/25 08:43:45;;;;;;;2.47;1.55;;;;;;;12.10;76.26;95383.64;1640638;87;21439;-84
2022/04/25 08:46:13;;;;;;;2.12;1.52;;;;;;;12.11;76.02;95389.64;1624723;87;21139;-84
2022/04/25 08:48:38;;;;;;;2.80;1.37;;;;;;;12.10;75.55;95388.05;1617341;87;20999;-84
2022/04/25 08:51:05;;;;;;;2.20;1.52;;;;;;;12.09;74.87;95395.07;1614447;87;20967;-84
2022/04/25 08:53:34;;;;;;;2.62;1.12;;;;;;;12.11;74.77;95392.25;1613872;87;21007;-85
2022/04/25 08:56:04;;;;;;;3.08;1.47;;;;;;;12.10;73.91;95391.95;1616681;87;21091;-84
2022/04/25 08:58:32;;;;;;;1.85;1.15;;;;;;;12.07;74.35;95394.49;1617642;87;21468;-84
2022/04/25 09:00:59;;;;;;;2.67;1.25;;;;;;;12.04;73.68;95397.53;1642052;87;20994;-84
2022/04/25 09:03:25;;;;;;;1.87;1.32;;;;;;;11.99;73.74;95398.15;1639742;87;21050;-83
2022/04/25 09:05:51;;;;;;;2.08;1.30;;;;;;;12.05;73.79;95398.33;1625410;87;21256;-83
2022/04/25 09:08:17;;;;;;;2.58;1.30;;;;;;;12.15;74.09;95405.13;1604638;87;21066;-84
2022/04/25 09:10:46;;;;;;;2.62;1.30;;;;;;;12.27;75.44;95402.11;1618264;87;21031;-83
2022/04/25 09:13:12;;;;;;;3.30;2.30;;;;;;;12.37;74.19;95413.34;1620514;87;21094;-83
2022/04/25 09:15:38;;;;;;;5.33;3.65;;;;;;;12.47;73.83;95417.02;1613751;87;21425;-84
2022/04/25 09:18:04;;;;;;;4.90;3.00;;;;;;;12.58;73.89;95411.09;1619200;87;21011;-84
2022/04/25 09:20:30;;;;;;;4.60;3.37;;;;;;;12.66;73.82;95414.41;1640497;87;21460;-83
2022/04/25 09:22:55;;;;;;;3.85;2.80;;;;;;;12.70;73.64;95424.20;1630489;87;21006;-82
2022/04/25 09:25:21;;;;;;;4.92;3.20;;;;;;;12.65;72.82;95424.05;1619738;87;20966;-82
2022/04/25 09:27:47;;;;;;;4.55;3.80;;;;;;;12.57;72.40;95429.05;1622931;88;20974;-82
2022/04/25 09:30:22;;;;;;;5.00;3.12;;;;;;;12.51;72.87;95432.50;1595108;90;21022;-82
2022/04/25 09:32:51;;;;;;;5.65;3.45;;;;;;;12.48;72.86;95436.84;1579177;87;21393;-84
2022/04/25 09:35:39;;;;;;;4.87;3.80;;;;;;;12.44;73.38;95434.90;1596767;88;20972;-84
2022/04/25 09:38:04;;;;;;;4.85;2.70;;;;;;;12.35;74.16;95436.98;1604625;88;21352;-83
2022/04/25 09:40:36;;;;;;;4.17;2.80;;;;;;;12.22;73.29;95441.03;1577635;90;21039;-84
2022/04/25 09:43:13;;;;;;;4.37;2.33;;;;;;;12.13;74.04;95443.09;1621352;87;21054;-83
2022/04/25 09:45:41;;;;;;;3.95;2.80;;;;;;;12.05;74.36;95445.98;1617456;87;20998;-84
2022/04/25 09:48:16;;;;;;;4.00;2.65;;;;;;;11.95;74.36;95443.85;1614339;87;21428;-84
2022/04/25 09:50:43;;;;;;;2.87;2.58;;;;;;;11.93;75.16;95448.98;1612944;89;21081;-84
2022/04/25 09:53:10;;;;;;;2.35;2.05;;;;;;;11.88;75.58;95447.02;1619966;87;21046;-84
2022/04/25 09:55:38;;;;;;;2.37;2.17;;;;;;;11.84;75.30;95447.13;1614767;87;21048;-84
2022/04/25 09:58:20;;;;;;;3.20;2.35;;;;;;;11.78;75.43;95453.16;1614764;87;21034;-84
2022/04/25 10:00:47;;;;;;;3.30;1.98;;;;;;;11.75;75.51;95454.89;1618562;87;21114;-83
2022/04/25 10:03:15;;;;;;;5.72;2.35;;;;;;;11.61;75.01;95452.88;1621771;87;21041;-84
2022/04/25 10:05:45;;;;;;;3.45;2.00;;;;;;;11.51;74.90;95464.75;1586300;89;21098;-84
2022/04/25 10:08:14;;;;;;;4.35;2.25;;;;;;;11.48;75.50;95456.86;1577451;89;20999;-84
2022/04/25 10:10:49;;;;;;;2.70;1.70;;;;;;;11.49;76.33;95460.26;1613574;87;21024;-83
2022/04/25 10:13:15;;;;;;;3.12;1.87;;;;;;;11.48;76.57;95455.56;1606190;87;21060;-84
2022/04/25 10:15:44;;;;;;;2.95;1.72;;;;;;;11.48;76.82;95459.97;1634561;87;20990;-84
2022/04/25 10:18:11;;;;;;;2.90;1.82;;;;;;;11.50;77.07;95456.14;1627261;87;21086;-84
2022/04/25 10:20:37;;;;;;;3.62;2.80;;;;;;;11.58;77.37;95457.72;1623053;88;21121;-84
2022/04/25 10:23:09;;;;;;;3.60;2.65;;;;;;;11.69;78.50;95457.02;1622911;88;21561;-84
2022/04/25 10:25:36;;;;;;;3.58;2.72;;;;;;;11.83;78.29;95451.25;1625527;87;21021;-84
2022/04/25 10:28:06;;;;;;;5.05;3.35;;;;;;;11.93;78.17;95457.59;1630193;87;21077;-85
2022/04/25 10:30:34;;;;;;;5.62;3.35;;;;;;;11.90;78.29;95439.00;1630466;87;20998;-82
2022/04/25 10:33:21;;;;;;;6.45;3.80;;;;;;;12.11;78.54;95462.05;1640247;87;21084;-82
2022/04/25 10:35:51;;;;;;;6.70;3.65;;;;;;;12.18;77.81;95457.56;1626471;87;21062;-82
2022/04/25 10:38:48;;;;;;;5.00;3.58;;;;;;;12.28;78.20;95453.98;1627817;87;21002;-82
2022/04/25 10:44:19;;;;;;;4.87;3.67;;;;;;;12.21;76.97;95464.19;1627649;87;21099;-82
2022/04/25 10:47:09;;;;;;;6.25;3.60;;;;;;;12.18;77.01;95460.17;1627758;87;21150;-82
2022/04/25 10:49:58;;;;;;;4.90;3.58;;;;;;;12.21;77.39;95464.19;1644786;87;21099;-82
2022/04/25 10:52:54;;;;;;;4.17;3.15;;;;;;;12.24;77.10;95467.15;1651248;87;21895;-82
2022/04/25 10:55:29;;;;;;;5.72;3.37;;;;;;;12.37;77.02;95458.42;1641166;87;20997;-82
2022/04/25 10:58:07;;;;;;;5.08;3.55;;;;;;;12.54;76.71;95459.96;1641787;87;21363;-83
2022/04/25 11:00:45;;;;;;;6.12;3.80;;;;;;;12.78;76.89;95460.91;1644596;87;21014;-83
2022/04/25 11:03:21;;;;;;;4.65;3.67;;;;;;;12.88;76.29;95469.02;1643829;87;21413;-82
2022/04/25 11:05:49;;;;;;;5.17;3.83;;;;;;;12.90;75.94;95472.20;1643826;87;21545;-82
2022/04/25 11:08:24;;;;;;;7.20;5.25;;;;;;;12.91;76.45;95468.07;1632701;87;20951;-82
2022/04/25 11:11:03;;;;;;;8.30;5.25;;;;;;;12.89;76.45;95472.71;1627883;86;21022;-83
2022/04/25 11:13:37;;;;;;;7.95;5.20;;;;;;;12.86;76.20;95474.97;1637880;87;21122;-82
2022/04/25 11:16:26;;;;;;;8.00;5.87;;;;;;;12.87;76.63;95473.95;1638374;87;20999;-82
2022/04/25 11:19:11;;;;;;;8.20;7.03;;;;;;;12.93;78.07;95477.77;1630317;86;21019;-82
2022/04/25 11:21:55;;;;;;;8.08;6.08;;;;;;;12.91;77.31;95482.92;1619542;87;21344;-82
2022/04/25 11:24:28;;;;;;;11.68;8.20;;;;;;;12.86;78.25;95480.97;1642792;87;22116;-82
2022/04/25 11:26:54;;;;;;;11.75;7.10;;;;;;;12.84;77.93;95485.58;1644713;87;21065;-82
2022/04/25 11:29:20;;;;;;;9.35;7.53;;;;;;;12.80;77.28;95484.94;1644965;87;21381;-83
2022/04/25 11:31:46;;;;;;;14.43;10.18;;;;;;;12.79;77.70;95485.45;1627985;87;20998;-82
2022/04/25 11:34:12;;;;;;;12.05;9.00;;;;;;;12.76;77.62;95486.39;1617258;87;20967;-82
2022/04/25 11:36:43;;;;;;;12.37;8.90;;;;;;;12.72;78.14;95488.64;1617143;87;21369;-82
2022/04/25 11:42:00;;;;;;;8.68;5.42;;;;;;;12.54;76.63;95495.94;1593542;87;21347;-82
2022/04/25 11:44:26;;;;;;;6.30;4.65;;;;;;;12.40;77.53;95506.19;1633357;87;20983;-82
2022/04/25 11:46:53;;;;;;;13.83;8.78;;;;;;;12.35;77.91;95509.12;1622436;87;21043;-82
2022/04/25 11:49:32;;;;;;;17.42;8.55;;;;;;;12.30;77.94;95513.67;1620161;87;21016;-82
2022/04/25 11:52:00;;;;;;;16.48;9.10;;;;;;;12.27;78.43;95515.41;1617174;87;20975;-83
2022/04/25 11:54:26;;;;;;;13.48;9.15;;;;;;;12.19;78.78;95522.17;1623943;87;21027;-83
2022/04/25 11:56:52;;;;;;;11.35;8.78;;;;;;;12.12;78.79;95523.53;1644671;87;20978;-83
2022/04/25 11:59:19;;;;;;;12.33;8.63;;;;;;;12.10;79.19;95524.25;1625540;87;22425;-82
2022/04/25 12:01:48;;;;;;;7.10;5.62;;;;;;;12.11;79.53;95522.45;1618678;87;20992;-83
2022/04/25 12:04:27;;;;;;;6.87;3.80;;;;;;;12.05;79.32;95528.00;1623223;87;21023;-82
2022/04/25 12:07:03;;;;;;;3.12;1.95;;;;;;;11.91;78.83;95541.61;1625392;87;21048;-82
2022/04/25 12:15:34;;;;;;;5.85;3.92;;;;;;;11.55;79.73;95557.80;1639694;87;21012;-82